Time;durP1;ratioP1;P1;durP2;ratioP2;P2;SDS_P1;SDS_P2;PMS_P1;PMS_P2;Temp;Humidity;BMP_temperature;BMP_pressure;BME280_temperature;BME280_humidity;BME280_pressure;Samples;Min_cycle;Max_cycle;Signal;HPM_P1;HPM_P2
2023/09/28 00:01:31;;;;;;;;;;;;;;;-140.72;100.00;52620.16;4992839;28;19926;-70
2023/09/28 00:03:58;;;;;;;;;;;;;;;-140.72;100.00;52601.91;4991132;28;19985;-70
2023/09/28 00:06:24;;;;;;;;;;;;;;;-140.72;100.00;52618.13;4998832;28;20319;-69
2023/09/28 00:08:50;;;;;;;;;;;;;;;-140.72;100.00;52595.81;4993036;28;19988;-70
2023/09/28 00:11:15;;;;;;;;;;;;;;;-140.72;100.00;52601.91;4992740;28;19925;-69
2023/09/28 00:13:40;;;;;;;;;;;;;;;-140.72;100.00;52575.50;4991498;28;19932;-70
2023/09/28 00:16:05;;;;;;;;;;;;;;;-140.72;100.00;52618.13;4991553;28;19932;-69
2023/09/28 00:18:31;;;;;;;;;;;;;;;-140.72;100.00;52587.69;4992555;28;19917;-69
2023/09/28 00:20:56;;;;;;;;;;;;;;;-140.72;100.00;52603.94;4992916;28;19925;-69
2023/09/28 00:23:21;;;;;;;;;;;;;;;-140.72;100.00;52565.38;4989844;28;19922;-70
2023/09/28 00:25:46;;;;;;;;;;;;;;;-140.72;100.00;52585.66;4994788;28;19929;-69
2023/09/28 00:28:12;;;;;;;;;;;;;;;-140.72;100.00;52618.13;4996318;28;19930;-70
2023/09/28 00:30:37;;;;;;;;;;;;;;;-140.72;100.00;52603.94;4996419;28;19975;-69
2023/09/28 00:33:03;;;;;;;;;;;;;;;-140.72;100.00;52597.84;4994479;28;20004;-69
2023/09/28 00:35:28;;;;;;;;;;;;;;;-140.72;100.00;52624.22;4996605;28;20020;-69
2023/09/28 00:37:53;;;;;;;;;;;;;;;-140.72;100.00;52644.50;4993029;28;19925;-70
2023/09/28 00:40:20;;;;;;;;;;;;;;;-140.72;100.00;52601.91;4992920;28;19932;-70
2023/09/28 00:42:52;;;;;;;;;;;;;;;-140.72;100.00;52597.84;4996452;28;19925;-69
2023/09/28 00:45:19;;;;;;;;;;;;;;;-140.72;100.00;52597.84;4996184;28;19941;-70
2023/09/28 00:47:45;;;;;;;;;;;;;;;-140.72;100.00;52599.88;4994588;28;19921;-70
2023/09/28 00:50:11;;;;;;;;;;;;;;;-140.72;100.00;52620.16;4995838;28;20016;-69
2023/09/28 00:52:41;;;;;;;;;;;;;;;-140.72;100.00;52614.06;4991883;28;20012;-69
2023/09/28 00:55:06;;;;;;;;;;;;;;;-140.72;100.00;52601.91;5004931;28;20024;-69
2023/09/28 00:57:33;;;;;;;;;;;;;;;-140.72;100.00;52636.38;4989171;28;19992;-69
2023/09/28 00:59:59;;;;;;;;;;;;;;;-140.72;100.00;52640.44;4991373;28;19925;-69
2023/09/28 01:02:26;;;;;;;;;;;;;;;-140.72;100.00;52632.34;4990497;28;20307;-69
2023/09/28 01:04:51;;;;;;;;;;;;;;;-140.72;100.00;52593.78;4995349;28;19926;-69
2023/09/28 01:07:26;;;;;;;;;;;;;;;-140.72;100.00;52603.94;4995798;28;19976;-70
2023/09/28 01:09:52;;;;;;;;;;;;;;;-140.72;100.00;52605.94;4993995;28;19964;-69
2023/09/28 01:12:19;;;;;;;;;;;;;;;-140.72;100.00;52626.25;4993877;28;19922;-69
2023/09/28 01:14:47;;;;;;;;;;;;;;;-140.72;100.00;52626.25;4991191;28;20016;-69
2023/09/28 01:17:13;;;;;;;;;;;;;;;-140.72;100.00;52601.91;4993163;28;19929;-68
2023/09/28 01:19:39;;;;;;;;;;;;;;;-140.72;100.00;52642.47;4993187;28;21376;-71
2023/09/28 01:22:06;;;;;;;;;;;;;;;-140.72;100.00;52622.19;4993951;28;19937;-70
2023/09/28 01:24:33;;;;;;;;;;;;;;;-140.72;100.00;52614.06;4993937;28;20041;-70
2023/09/28 01:26:58;;;;;;;;;;;;;;;-140.72;100.00;52624.22;4993857;28;20326;-70
2023/09/28 01:29:24;;;;;;;;;;;;;;;-140.72;100.00;52591.75;4992616;28;20004;-70
2023/09/28 01:31:49;;;;;;;;;;;;;;;-140.72;100.00;52612.03;4995021;28;19922;-70
2023/09/28 01:34:14;;;;;;;;;;;;;;;-140.72;100.00;52646.53;4993552;28;20364;-70
2023/09/28 01:36:40;;;;;;;;;;;;;;;-140.72;100.00;52658.72;4993610;28;19948;-70
2023/09/28 01:39:07;;;;;;;;;;;;;;;-140.72;100.00;52646.53;4994565;28;19928;-70
2023/09/28 01:41:33;;;;;;;;;;;;;;;-140.72;100.00;52650.59;4985783;28;19929;-70
2023/09/28 01:43:59;;;;;;;;;;;;;;;-140.72;100.00;52616.09;4993924;28;20300;-71
2023/09/28 01:46:24;;;;;;;;;;;;;;;-140.72;100.00;52632.34;4984564;28;19928;-70
2023/09/28 01:48:49;;;;;;;;;;;;;;;-140.72;100.00;52644.50;4990766;28;19929;-70
2023/09/28 01:51:14;;;;;;;;;;;;;;;-140.72;100.00;52630.31;4991197;28;19976;-70
2023/09/28 01:53:40;;;;;;;;;;;;;;;-140.72;100.00;52642.47;4991817;28;20012;-71
2023/09/28 01:56:05;;;;;;;;;;;;;;;-140.72;100.00;52648.56;4994719;28;19968;-70
2023/09/28 01:58:31;;;;;;;;;;;;;;;-140.72;100.00;52654.66;4991829;28;20013;-70
2023/09/28 02:00:56;;;;;;;;;;;;;;;-140.72;100.00;52652.63;4994360;28;19929;-70
2023/09/28 02:03:22;;;;;;;;;;;;;;;-140.72;100.00;52642.47;4989208;28;19921;-70
2023/09/28 02:05:48;;;;;;;;;;;;;;;-140.72;100.00;52616.09;4984927;28;20021;-71
2023/09/28 02:08:14;;;;;;;;;;;;;;;-140.72;100.00;52646.53;4991907;28;19922;-70
2023/09/28 02:10:40;;;;;;;;;;;;;;;-140.72;100.00;52666.84;4991025;28;20319;-70
2023/09/28 02:13:05;;;;;;;;;;;;;;;-140.72;100.00;52626.25;4991526;28;19970;-70
2023/09/28 02:15:30;;;;;;;;;;;;;;;-140.72;100.00;52603.94;4994446;28;19926;-70
2023/09/28 02:17:56;;;;;;;;;;;;;;;-140.72;100.00;52656.69;4988553;28;19929;-71
2023/09/28 02:20:23;;;;;;;;;;;;;;;-140.72;100.00;52654.66;4989899;28;20020;-70
2023/09/28 02:22:50;;;;;;;;;;;;;;;-140.72;100.00;52656.69;4988340;28;20390;-70
2023/09/28 02:25:22;;;;;;;;;;;;;;;-140.72;100.00;52618.13;4988129;28;19961;-71
2023/09/28 02:27:48;;;;;;;;;;;;;;;-140.72;100.00;52652.63;4986871;28;19936;-70
2023/09/28 02:30:17;;;;;;;;;;;;;;;-140.72;100.00;52662.78;4991781;28;19929;-70
2023/09/28 02:32:43;;;;;;;;;;;;;;;-140.72;100.00;52670.88;4981658;28;19957;-70
2023/09/28 02:35:10;;;;;;;;;;;;;;;-140.72;100.00;52569.44;4986598;28;20424;-71
2023/09/28 02:37:35;;;;;;;;;;;;;;;-140.72;100.00;52664.81;4990626;28;19922;-70
2023/09/28 02:40:01;;;;;;;;;;;;;;;-140.72;100.00;52601.91;4991476;28;20351;-70
2023/09/28 02:42:34;;;;;;;;;;;;;;;-140.72;100.00;52656.69;4990126;28;19922;-70
2023/09/28 02:45:00;;;;;;;;;;;;;;;-140.72;100.00;52652.63;4988001;28;19929;-70
2023/09/28 02:47:26;;;;;;;;;;;;;;;-140.72;100.00;52624.22;4989342;28;19922;-70
2023/09/28 02:49:51;;;;;;;;;;;;;;;-140.72;100.00;52624.22;4985638;28;20335;-70
2023/09/28 02:52:17;;;;;;;;;;;;;;;-140.72;100.00;52620.16;4988871;28;19922;-70
2023/09/28 02:54:43;;;;;;;;;;;;;;;-140.72;100.00;52634.38;4990160;28;19930;-70
2023/09/28 02:57:08;;;;;;;;;;;;;;;-140.72;100.00;52626.25;4989099;28;19972;-70
2023/09/28 02:59:34;;;;;;;;;;;;;;;-140.72;100.00;52658.72;4988670;28;19922;-70
2023/09/28 03:01:59;;;;;;;;;;;;;;;-140.72;100.00;52674.94;4994527;28;19957;-70
2023/09/28 03:04:24;;;;;;;;;;;;;;;-140.72;100.00;52646.53;4986686;28;19922;-70
2023/09/28 03:06:52;;;;;;;;;;;;;;;-140.72;100.00;52668.84;4992690;28;20012;-70
2023/09/28 03:09:18;;;;;;;;;;;;;;;-140.72;100.00;52630.31;4990724;28;19965;-70
2023/09/28 03:11:43;;;;;;;;;;;;;;;-140.72;100.00;52683.06;4993664;28;19957;-70
2023/09/28 03:14:08;;;;;;;;;;;;;;;-140.72;100.00;52648.56;4991780;28;19921;-70
2023/09/28 03:16:34;;;;;;;;;;;;;;;-140.72;100.00;52662.78;4990921;28;19922;-71
2023/09/28 03:19:00;;;;;;;;;;;;;;;-140.72;100.00;52664.81;4990196;28;19929;-70
2023/09/28 03:21:25;;;;;;;;;;;;;;;-140.72;100.00;52670.88;4992800;28;19976;-69
2023/09/28 03:23:51;;;;;;;;;;;;;;;-140.72;100.00;52666.84;4989150;28;19961;-70
2023/09/28 03:26:16;;;;;;;;;;;;;;;-140.72;100.00;52658.72;4993901;28;20012;-70
2023/09/28 03:28:42;;;;;;;;;;;;;;;-140.72;100.00;52662.78;4989097;28;20291;-70
2023/09/28 03:31:07;;;;;;;;;;;;;;;-140.72;100.00;52650.59;4988309;28;19922;-70
2023/09/28 03:33:32;;;;;;;;;;;;;;;-140.72;100.00;52670.88;4996256;28;19980;-70
2023/09/28 03:35:58;;;;;;;;;;;;;;;-140.72;100.00;52656.69;5000530;28;19929;-70
2023/09/28 03:38:23;;;;;;;;;;;;;;;-140.72;100.00;52640.44;4994250;28;20370;-70
2023/09/28 03:40:49;;;;;;;;;;;;;;;-140.72;100.00;52679.00;4983886;28;19997;-70
2023/09/28 03:43:14;;;;;;;;;;;;;;;-140.72;100.00;52660.75;5007167;28;20430;-70
2023/09/28 03:45:39;;;;;;;;;;;;;;;-140.72;100.00;52656.69;4993390;28;19922;-70
2023/09/28 03:48:05;;;;;;;;;;;;;;;-140.72;100.00;52634.38;4993044;28;19929;-70
2023/09/28 03:50:30;;;;;;;;;;;;;;;-140.72;100.00;52670.88;4993399;28;19933;-71
2023/09/28 03:52:55;;;;;;;;;;;;;;;-140.72;100.00;52664.81;4991951;28;19933;-69
2023/09/28 03:55:24;;;;;;;;;;;;;;;-140.72;100.00;52670.88;4990153;28;20395;-69
2023/09/28 03:57:50;;;;;;;;;;;;;;;-140.72;100.00;52662.78;4990868;28;19922;-69
2023/09/28 04:00:17;;;;;;;;;;;;;;;-140.72;100.00;52652.63;4996561;28;19993;-70
2023/09/28 04:02:47;;;;;;;;;;;;;;;-140.72;100.00;52683.06;4993307;28;19989;-70
2023/09/28 04:05:12;;;;;;;;;;;;;;;-140.72;100.00;52626.25;4996228;28;19925;-73
2023/09/28 04:07:39;;;;;;;;;;;;;;;-140.72;100.00;52658.72;5011601;28;19992;-69
2023/09/28 04:10:04;;;;;;;;;;;;;;;-140.72;100.00;52612.03;4991591;28;19921;-69
2023/09/28 04:12:30;;;;;;;;;;;;;;;-140.72;100.00;52674.94;4992208;28;19933;-69
2023/09/28 04:14:55;;;;;;;;;;;;;;;-140.72;100.00;52636.38;4992704;28;19997;-69
2023/09/28 04:17:21;;;;;;;;;;;;;;;-140.72;100.00;52646.53;4991543;28;19922;-69
2023/09/28 04:19:46;;;;;;;;;;;;;;;-140.72;100.00;52648.56;4993229;28;20022;-69
2023/09/28 04:22:11;;;;;;;;;;;;;;;-140.72;100.00;52654.66;4989637;28;20294;-69
2023/09/28 04:24:37;;;;;;;;;;;;;;;-140.72;100.00;52670.88;4995567;28;19922;-69
2023/09/28 04:27:02;;;;;;;;;;;;;;;-140.72;100.00;52644.50;4992281;28;19921;-70
2023/09/28 04:29:27;;;;;;;;;;;;;;;-140.72;100.00;52668.84;4996070;28;19922;-70
2023/09/28 04:31:53;;;;;;;;;;;;;;;-140.72;100.00;52674.94;5010692;28;19922;-69
2023/09/28 04:34:19;;;;;;;;;;;;;;;-140.72;100.00;52672.91;4991857;28;19921;-69
2023/09/28 04:36:45;;;;;;;;;;;;;;;-140.72;100.00;52672.91;4991890;28;19964;-69
2023/09/28 04:39:10;;;;;;;;;;;;;;;-140.72;100.00;52658.72;4994074;28;20341;-73
2023/09/28 04:41:36;;;;;;;;;;;;;;;-140.72;100.00;52660.75;4999664;28;19921;-69
2023/09/28 04:44:02;;;;;;;;;;;;;;;-140.72;100.00;52670.88;4993188;28;19968;-70
2023/09/28 04:46:27;;;;;;;;;;;;;;;-140.72;100.00;52618.13;4987236;28;19985;-70
2023/09/28 04:48:53;;;;;;;;;;;;;;;-140.72;100.00;52703.34;4992213;28;19922;-69
2023/09/28 04:51:19;;;;;;;;;;;;;;;-140.72;100.00;52642.47;4991190;28;19922;-69
2023/09/28 04:53:44;;;;;;;;;;;;;;;-140.72;100.00;52664.81;4995859;28;19929;-69
2023/09/28 04:56:11;;;;;;;;;;;;;;;-140.72;100.00;52713.50;4992775;28;19926;-70
2023/09/28 04:58:37;;;;;;;;;;;;;;;-140.72;100.00;52703.34;4994900;28;19922;-69
2023/09/28 05:01:02;;;;;;;;;;;;;;;-140.72;100.00;52725.69;4992684;28;20384;-71
2023/09/28 05:03:27;;;;;;;;;;;;;;;-140.72;100.00;52713.50;4989596;28;20295;-70
2023/09/28 05:06:00;;;;;;;;;;;;;;;-140.72;100.00;52711.47;4988000;28;20351;-69
2023/09/28 05:08:26;;;;;;;;;;;;;;;-140.72;100.00;52687.13;4993694;28;19922;-70
2023/09/28 05:10:51;;;;;;;;;;;;;;;-140.72;100.00;52719.59;4995031;28;19926;-74
2023/09/28 05:16:22;;;;;;;;;;;;;;;-140.72;100.00;52693.22;4994534;28;19925;-73
2023/09/28 05:18:47;;;;;;;;;;;;;;;-140.72;100.00;52699.31;4987482;28;19926;-72
2023/09/28 05:21:12;;;;;;;;;;;;;;;-140.72;100.00;52699.31;4994097;28;20009;-73
2023/09/28 05:23:38;;;;;;;;;;;;;;;-140.72;100.00;52709.44;4992633;28;19965;-73
2023/09/28 05:26:03;;;;;;;;;;;;;;;-140.72;100.00;52672.91;5010384;28;19918;-73
2023/09/28 05:28:29;;;;;;;;;;;;;;;-140.72;100.00;52687.13;4995359;28;19922;-74
2023/09/28 05:30:54;;;;;;;;;;;;;;;-140.72;100.00;52685.09;4990443;28;20008;-73
2023/09/28 05:33:19;;;;;;;;;;;;;;;-140.72;100.00;52719.59;4992857;28;20017;-73
2023/09/28 05:35:46;;;;;;;;;;;;;;;-140.72;100.00;52717.56;4991603;28;19922;-73
2023/09/28 05:38:11;;;;;;;;;;;;;;;-140.72;100.00;52683.06;4994068;28;19926;-73
2023/09/28 05:40:42;;;;;;;;;;;;;;;-140.72;100.00;52715.53;4992295;28;20265;-74
2023/09/28 05:43:07;;;;;;;;;;;;;;;-140.72;100.00;52719.59;5006061;28;19922;-74
2023/09/28 05:45:32;;;;;;;;;;;;;;;-140.72;100.00;52699.31;5007810;28;19949;-74
2023/09/28 05:47:58;;;;;;;;;;;;;;;-140.72;100.00;52737.84;5004731;28;20038;-75
2023/09/28 05:50:23;;;;;;;;;;;;;;;-140.72;100.00;52695.25;4991445;28;19926;-74
2023/09/28 05:52:52;;;;;;;;;;;;;;;-140.72;100.00;52725.69;4988180;28;19976;-75
2023/09/28 05:55:19;;;;;;;;;;;;;;;-140.72;100.00;52727.72;4985000;28;20016;-75
2023/09/28 05:57:44;;;;;;;;;;;;;;;-140.72;100.00;52725.69;4987270;28;19925;-74
2023/09/28 06:00:10;;;;;;;;;;;;;;;-140.72;100.00;52721.63;4984613;28;20400;-73
2023/09/28 06:02:35;;;;;;;;;;;;;;;-140.72;100.00;52731.75;4984622;28;19948;-72
2023/09/28 06:05:00;;;;;;;;;;;;;;;-140.72;100.00;52756.13;4986173;28;19974;-78
2023/09/28 06:07:26;;;;;;;;;;;;;;;-140.72;100.00;52739.88;4989915;28;19921;-70
2023/09/28 06:09:52;;;;;;;;;;;;;;;-140.72;100.00;52735.81;4998552;28;19917;-70
2023/09/28 06:12:17;;;;;;;;;;;;;;;-140.72;100.00;52725.69;5005264;28;20291;-70
2023/09/28 06:14:42;;;;;;;;;;;;;;;-140.72;100.00;52719.59;4991697;28;19925;-70
2023/09/28 06:17:07;;;;;;;;;;;;;;;-140.72;100.00;52721.63;4985635;28;19918;-70
2023/09/28 06:19:33;;;;;;;;;;;;;;;-140.72;100.00;52695.25;4993030;28;19918;-70
2023/09/28 06:21:59;;;;;;;;;;;;;;;-140.72;100.00;52703.34;4994859;28;19918;-70
2023/09/28 06:24:25;;;;;;;;;;;;;;;-140.72;100.00;52715.53;4993701;28;20388;-70
2023/09/28 06:26:50;;;;;;;;;;;;;;;-140.72;100.00;52705.38;4993809;28;19932;-70
2023/09/28 06:29:16;;;;;;;;;;;;;;;-140.72;100.00;52703.34;4992829;28;20041;-70
2023/09/28 06:31:43;;;;;;;;;;;;;;;-140.72;100.00;52705.38;4992186;28;19957;-70
2023/09/28 06:34:09;;;;;;;;;;;;;;;-140.72;100.00;52683.06;4992502;28;19925;-70
2023/09/28 06:36:34;;;;;;;;;;;;;;;-140.72;100.00;52697.28;4991640;28;20360;-70
2023/09/28 06:38:59;;;;;;;;;;;;;;;-140.72;100.00;52681.03;4990884;28;19925;-69
2023/09/28 06:41:25;;;;;;;;;;;;;;;-140.72;100.00;52683.06;4991917;28;20013;-69
2023/09/28 06:43:50;;;;;;;;;;;;;;;-140.72;100.00;52668.84;4993878;28;19922;-70
2023/09/28 06:46:15;;;;;;;;;;;;;;;-140.72;100.00;52709.44;4993847;28;20375;-70
2023/09/28 06:48:41;;;;;;;;;;;;;;;-140.72;100.00;52644.50;4993683;28;19925;-69
2023/09/28 06:51:06;;;;;;;;;;;;;;;-140.72;100.00;52687.13;4989815;28;19917;-70
2023/09/28 06:53:31;;;;;;;;;;;;;;;-140.72;100.00;52650.59;4993737;28;19917;-69
2023/09/28 06:55:59;;;;;;;;;;;;;;;-140.72;100.00;52703.34;4993900;28;19965;-70
2023/09/28 06:58:25;;;;;;;;;;;;;;;-140.72;100.00;52685.09;4993879;28;19942;-70
2023/09/28 07:00:50;;;;;;;;;;;;;;;-140.72;100.00;52648.56;4993900;28;20324;-70
2023/09/28 07:03:16;;;;;;;;;;;;;;;-140.72;100.00;52683.06;4993831;28;20379;-70
2023/09/28 07:05:41;;;;;;;;;;;;;;;-140.72;100.00;52642.47;4994008;28;19918;-70
2023/09/28 07:08:07;;;;;;;;;;;;;;;-140.72;100.00;52672.91;4994094;28;19917;-70
2023/09/28 07:10:33;;;;;;;;;;;;;;;-140.72;100.00;52650.59;4993283;28;19949;-69
2023/09/28 07:13:05;;;;;;;;;;;;;;;-140.72;100.00;52664.81;4993870;28;19973;-70
2023/09/28 07:15:30;;;;;;;;;;;;;;;-140.72;100.00;52666.84;4993168;28;19992;-69
2023/09/28 07:17:56;;;;;;;;;;;;;;;-140.72;100.00;52676.97;4993663;28;19922;-70
2023/09/28 07:20:21;;;;;;;;;;;;;;;-140.72;100.00;52674.94;4992875;28;20286;-69
2023/09/28 07:22:48;;;;;;;;;;;;;;;-140.72;100.00;52654.66;4993873;28;19949;-69
2023/09/28 07:25:13;;;;;;;;;;;;;;;-140.72;100.00;52648.56;4993220;28;19949;-69
2023/09/28 07:27:40;;;;;;;;;;;;;;;-140.72;100.00;52622.19;4993505;28;19969;-69
2023/09/28 07:30:06;;;;;;;;;;;;;;;-140.72;100.00;52664.81;4993035;28;20355;-70
2023/09/28 07:32:31;;;;;;;;;;;;;;;-140.72;100.00;52658.72;4992464;28;19917;-70
2023/09/28 07:34:57;;;;;;;;;;;;;;;-140.72;100.00;52640.44;4998527;28;20050;-70
2023/09/28 07:37:22;;;;;;;;;;;;;;;-140.72;100.00;52664.81;4998472;28;19927;-70
2023/09/28 07:39:48;;;;;;;;;;;;;;;-140.72;100.00;52624.22;4995951;28;19925;-70
2023/09/28 07:42:13;;;;;;;;;;;;;;;-140.72;100.00;52571.47;4997293;28;20000;-70
2023/09/28 07:44:40;;;;;;;;;;;;;;;-140.72;100.00;52628.28;4996866;28;20288;-70
2023/09/28 07:47:06;;;;;;;;;;;;;;;-140.72;100.00;52618.13;4993680;28;19929;-70
2023/09/28 07:49:31;;;;;;;;;;;;;;;-140.72;100.00;52634.38;5012664;28;19921;-70
2023/09/28 07:51:57;;;;;;;;;;;;;;;-140.72;100.00;52614.06;4997148;28;20375;-69
2023/09/28 07:54:22;;;;;;;;;;;;;;;-140.72;100.00;52650.59;5012640;28;20305;-70
2023/09/28 07:56:47;;;;;;;;;;;;;;;-140.72;100.00;52636.38;4997240;28;19918;-70
2023/09/28 07:59:13;;;;;;;;;;;;;;;-140.72;100.00;52644.50;4993056;28;19918;-70
2023/09/28 08:01:39;;;;;;;;;;;;;;;-140.72;100.00;52597.84;4992639;28;19922;-70
2023/09/28 08:04:04;;;;;;;;;;;;;;;-140.72;100.00;52616.09;4996672;28;20240;-70
2023/09/28 08:06:30;;;;;;;;;;;;;;;-140.72;100.00;52603.94;4996529;28;19948;-70
2023/09/28 08:08:55;;;;;;;;;;;;;;;-140.72;100.00;52601.91;4996316;28;19926;-70
2023/09/28 08:11:20;;;;;;;;;;;;;;;-140.72;100.00;52612.03;4996955;28;20394;-69
2023/09/28 08:13:45;;;;;;;;;;;;;;;-140.72;100.00;52593.78;5011419;28;20380;-70
2023/09/28 08:16:10;;;;;;;;;;;;;;;-140.72;100.00;52545.06;4996720;28;19944;-70
2023/09/28 08:18:36;;;;;;;;;;;;;;;-140.72;100.00;52593.78;4995713;28;19953;-70
2023/09/28 08:21:03;;;;;;;;;;;;;;;-140.72;100.00;52561.31;4996841;28;19957;-70
2023/09/28 08:23:29;;;;;;;;;;;;;;;-140.72;100.00;52610.00;4996921;28;19933;-70
2023/09/28 08:25:55;;;;;;;;;;;;;;;-140.72;100.00;52618.13;4997543;28;19918;-69
2023/09/28 08:28:21;;;;;;;;;;;;;;;-140.72;100.00;52595.81;4996409;28;20384;-69
2023/09/28 08:30:47;;;;;;;;;;;;;;;-140.72;100.00;52575.50;4996096;28;20398;-69
2023/09/28 08:33:12;;;;;;;;;;;;;;;-140.72;100.00;52597.84;4996167;28;19917;-70
2023/09/28 08:35:37;;;;;;;;;;;;;;;-140.72;100.00;52605.94;4995583;28;20307;-69
2023/09/28 08:38:04;;;;;;;;;;;;;;;-140.72;100.00;52589.72;4994010;28;20376;-69
2023/09/28 08:40:30;;;;;;;;;;;;;;;-140.72;100.00;52618.13;4995131;28;19929;-70
2023/09/28 08:42:57;;;;;;;;;;;;;;;-140.72;100.00;52593.78;4992738;28;20355;-69
2023/09/28 08:45:23;;;;;;;;;;;;;;;-140.72;100.00;52624.22;4996188;28;20387;-70
2023/09/28 08:47:49;;;;;;;;;;;;;;;-140.72;100.00;52593.78;4995620;28;19922;-70
2023/09/28 08:50:17;;;;;;;;;;;;;;;-140.72;100.00;52581.59;4995353;28;19925;-70
2023/09/28 08:52:44;;;;;;;;;;;;;;;-140.72;100.00;52524.78;4996288;28;19918;-70
2023/09/28 08:55:09;;;;;;;;;;;;;;;-140.72;100.00;52603.94;4996178;28;19918;-70
2023/09/28 08:57:35;;;;;;;;;;;;;;;-140.72;100.00;52553.19;4994619;28;19952;-70
2023/09/28 09:00:01;;;;;;;;;;;;;;;-140.72;100.00;52539.00;4996353;28;19926;-70
2023/09/28 09:02:27;;;;;;;;;;;;;;;-140.72;100.00;52532.91;4984934;28;19944;-70
2023/09/28 09:04:53;;;;;;;;;;;;;;;-140.72;100.00;52539.00;4995750;28;19925;-70
2023/09/28 09:07:20;;;;;;;;;;;;;;;-140.72;100.00;52559.28;4987303;28;19925;-70
2023/09/28 09:09:45;;;;;;;;;;;;;;;-140.72;100.00;52561.31;4990347;28;19922;-70
2023/09/28 09:12:10;;;;;;;;;;;;;;;-140.72;100.00;52559.28;4991928;28;20434;-70
2023/09/28 09:14:37;;;;;;;;;;;;;;;-140.72;100.00;52612.03;4995833;28;20438;-70
2023/09/28 09:17:03;;;;;;;;;;;;;;;-140.72;100.00;52573.50;4991089;28;19918;-70
2023/09/28 09:19:31;;;;;;;;;;;;;;;-140.72;100.00;52545.06;4989320;28;20386;-70
2023/09/28 09:21:57;;;;;;;;;;;;;;;-140.72;100.00;52528.84;4994960;28;20399;-70
2023/09/28 09:24:23;;;;;;;;;;;;;;;-140.72;100.00;52565.38;4995715;28;19918;-70
2023/09/28 09:26:52;;;;;;;;;;;;;;;-140.72;100.00;52539.00;4995883;28;19918;-70
2023/09/28 09:29:18;;;;;;;;;;;;;;;-140.72;100.00;52526.81;4987255;28;19928;-70
2023/09/28 09:31:44;;;;;;;;;;;;;;;-140.72;100.00;52575.50;4987519;28;20008;-70
2023/09/28 09:34:19;;;;;;;;;;;;;;;-140.72;100.00;52543.03;4991883;28;19949;-70
2023/09/28 09:36:51;;;;;;;;;;;;;;;-140.72;100.00;52532.91;4988502;28;19918;-70
2023/09/28 09:39:35;;;;;;;;;;;;;;;-140.72;100.00;52504.50;4993187;28;20358;-70
2023/09/28 09:42:00;;;;;;;;;;;;;;;-140.72;100.00;52536.97;4984972;28;20484;-70
2023/09/28 09:44:27;;;;;;;;;;;;;;;-140.72;100.00;52555.22;4993059;28;19918;-70
2023/09/28 09:46:52;;;;;;;;;;;;;;;-140.72;100.00;52553.19;4995570;28;19928;-70
2023/09/28 09:49:18;;;;;;;;;;;;;;;-140.72;100.00;52557.25;4994509;28;20284;-70
2023/09/28 09:51:48;;;;;;;;;;;;;;;-140.72;100.00;52545.06;4994964;28;19958;-70
2023/09/28 09:54:17;;;;;;;;;;;;;;;-140.72;100.00;52516.66;4995038;28;20077;-70
2023/09/28 09:56:44;;;;;;;;;;;;;;;-140.72;100.00;52502.47;4993854;28;19918;-70
2023/09/28 09:59:11;;;;;;;;;;;;;;;-140.72;100.00;52539.00;4995004;28;20379;-70
2023/09/28 10:01:39;;;;;;;;;;;;;;;-140.72;100.00;52512.59;4986644;28;19918;-70
2023/09/28 10:04:12;;;;;;;;;;;;;;;-140.72;100.00;52508.56;4990026;28;20004;-71
2023/09/28 10:06:38;;;;;;;;;;;;;;;-140.72;100.00;52512.59;4994722;28;19917;-70
2023/09/28 10:09:04;;;;;;;;;;;;;;;-140.72;100.00;52504.50;4994124;28;20004;-70
2023/09/28 10:11:31;;;;;;;;;;;;;;;-140.72;100.00;52567.41;4995097;28;19918;-70
2023/09/28 10:13:57;;;;;;;;;;;;;;;-140.72;100.00;52526.81;4992987;28;20333;-70
2023/09/28 10:16:23;;;;;;;;;;;;;;;-140.72;100.00;52536.97;4994696;28;19925;-70
2023/09/28 10:18:49;;;;;;;;;;;;;;;-140.72;100.00;52522.75;4993095;28;19925;-70
2023/09/28 10:21:16;;;;;;;;;;;;;;;-140.72;100.00;52520.72;4995332;28;19960;-70
2023/09/28 10:23:42;;;;;;;;;;;;;;;-140.72;100.00;52549.13;4992323;28;19961;-70
2023/09/28 10:26:15;;;;;;;;;;;;;;;-140.72;100.00;52528.84;4993137;28;19960;-70
2023/09/28 10:29:16;;;;;;;;;;;;;;;-140.72;100.00;52490.28;4993483;28;20354;-70
2023/09/28 10:31:42;;;;;;;;;;;;;;;-140.72;100.00;52524.78;4992121;28;20331;-70
2023/09/28 10:34:08;;;;;;;;;;;;;;;-140.72;100.00;52547.09;4994361;28;20375;-70
2023/09/28 10:36:34;;;;;;;;;;;;;;;-140.72;100.00;52534.94;4987910;28;19941;-70
2023/09/28 10:39:09;;;;;;;;;;;;;;;-140.72;100.00;52524.78;4995405;28;19960;-70
2023/09/28 10:41:35;;;;;;;;;;;;;;;-140.72;100.00;52543.03;4989610;28;19925;-70
2023/09/28 10:44:00;;;;;;;;;;;;;;;-140.72;100.00;52569.44;4993834;28;19926;-70
2023/09/28 10:46:29;;;;;;;;;;;;;;;-140.72;100.00;52520.72;4989153;28;20005;-70
2023/09/28 10:48:57;;;;;;;;;;;;;;;-140.72;100.00;52573.50;4993941;28;19921;-70
2023/09/28 10:51:22;;;;;;;;;;;;;;;-140.72;100.00;52563.34;4993953;28;19965;-70
2023/09/28 10:53:47;;;;;;;;;;;;;;;-140.72;100.00;52553.19;4993718;28;19918;-71
2023/09/28 10:56:12;;;;;;;;;;;;;;;-140.72;100.00;52571.47;4993651;28;19922;-70
2023/09/28 10:58:38;;;;;;;;;;;;;;;-140.72;100.00;52516.66;4993368;28;19977;-70
2023/09/28 11:01:05;;;;;;;;;;;;;;;-140.72;100.00;52551.16;4989960;28;19974;-70
2023/09/28 11:03:30;;;;;;;;;;;;;;;-140.72;100.00;52569.44;4985402;28;19918;-70
2023/09/28 11:05:55;;;;;;;;;;;;;;;-140.72;100.00;52530.88;4993605;28;20403;-70
2023/09/28 11:08:21;;;;;;;;;;;;;;;-140.72;100.00;52528.84;5003508;28;19968;-71
2023/09/28 11:10:47;;;;;;;;;;;;;;;-140.72;100.00;52549.13;4994653;28;19918;-71
2023/09/28 11:13:12;;;;;;;;;;;;;;;-140.72;100.00;52577.53;4993729;28;19917;-70
2023/09/28 11:15:38;;;;;;;;;;;;;;;-140.72;100.00;52553.19;4992330;28;19925;-70
2023/09/28 11:18:04;;;;;;;;;;;;;;;-140.72;100.00;52561.31;4993809;28;19961;-70
2023/09/28 11:20:31;;;;;;;;;;;;;;;-140.72;100.00;52589.72;4992483;28;19918;-70
2023/09/28 11:22:57;;;;;;;;;;;;;;;-140.72;100.00;52581.59;4992480;28;19918;-70
2023/09/28 11:25:22;;;;;;;;;;;;;;;-140.72;100.00;52559.28;4992320;28;19944;-70
2023/09/28 11:27:47;;;;;;;;;;;;;;;-140.72;100.00;52541.03;4993923;28;19981;-70
2023/09/28 11:30:17;;;;;;;;;;;;;;;-140.72;100.00;52565.38;4991458;28;20292;-70
2023/09/28 11:32:50;;;;;;;;;;;;;;;-140.72;100.00;52557.25;4993442;28;19918;-70
2023/09/28 11:35:16;;;;;;;;;;;;;;;-140.72;100.00;52581.59;4993729;28;19918;-70
2023/09/28 11:37:41;;;;;;;;;;;;;;;-140.72;100.00;52557.25;4998363;28;19940;-70
2023/09/28 11:40:07;;;;;;;;;;;;;;;-140.72;100.00;52545.06;5001948;28;19918;-71
2023/09/28 11:42:32;;;;;;;;;;;;;;;-140.72;100.00;52532.91;4995053;28;20016;-69
2023/09/28 11:44:57;;;;;;;;;;;;;;;-140.72;100.00;52532.91;4995840;28;19964;-69
2023/09/28 11:47:23;;;;;;;;;;;;;;;-140.72;100.00;52528.84;4993534;28;20188;-70
2023/09/28 11:49:48;;;;;;;;;;;;;;;-140.72;100.00;52435.50;4994562;28;19925;-69
2023/09/28 11:52:14;;;;;;;;;;;;;;;-140.72;100.00;52449.72;4991989;28;19929;-68
2023/09/28 11:54:40;;;;;;;;;;;;;;;-140.72;100.00;52437.53;4993858;28;20001;-69
2023/09/28 11:57:05;;;;;;;;;;;;;;;-140.72;100.00;52494.34;4993051;28;19917;-69
2023/09/28 11:59:31;;;;;;;;;;;;;;;-140.72;100.00;52553.19;4993371;28;19922;-73
2023/09/28 12:01:57;;;;;;;;;;;;;;;-140.72;100.00;52541.03;4991826;28;19918;-69
2023/09/28 12:04:23;;;;;;;;;;;;;;;-140.72;100.00;52563.34;4993498;28;19918;-69
2023/09/28 12:06:48;;;;;;;;;;;;;;;-140.72;100.00;52520.72;4987820;28;19924;-69
2023/09/28 12:09:17;;;;;;;;;;;;;;;-140.72;100.00;52526.81;4992065;28;19918;-69
2023/09/28 12:11:44;;;;;;;;;;;;;;;-140.72;100.00;52518.69;4993245;28;19945;-71
2023/09/28 12:14:09;;;;;;;;;;;;;;;-140.72;100.00;52449.72;4992317;28;19940;-69
2023/09/28 12:16:34;;;;;;;;;;;;;;;-140.72;100.00;52425.34;4991748;28;20376;-69